createdAt,value
2023-04-15T00:01:01.349Z,0.80
2023-04-15T00:03:28.610Z,0.80
2023-04-15T00:05:55.441Z,0.80
2023-04-15T00:08:22.138Z,1.00
2023-04-15T00:10:49.354Z,0.88
2023-04-15T00:13:16.531Z,0.80
2023-04-15T00:15:43.498Z,0.80
2023-04-15T00:18:10.362Z,0.75
2023-04-15T00:20:37.543Z,0.88
2023-04-15T00:23:04.458Z,0.80
2023-04-15T00:25:31.587Z,0.95
2023-04-15T00:27:58.299Z,0.80
2023-04-15T00:30:26.467Z,0.90
2023-04-15T00:32:53.507Z,0.80
2023-04-15T00:35:20.606Z,0.60
2023-04-15T00:37:47.214Z,0.80
2023-04-15T00:40:16.331Z,0.75
2023-04-15T00:42:43.350Z,0.70
2023-04-15T00:45:10.865Z,1.00
2023-04-15T00:47:39.198Z,0.90
2023-04-15T00:50:06.483Z,0.88
2023-04-15T00:52:33.228Z,0.68
2023-04-15T00:55:00.308Z,0.60
2023-04-15T00:57:28.689Z,0.70
2023-04-15T00:59:56.770Z,0.80
2023-04-15T01:02:24.168Z,0.70
2023-04-15T01:04:51.242Z,0.90
2023-04-15T01:07:17.859Z,0.80
2023-04-15T01:09:45.619Z,1.00
2023-04-15T01:12:16.996Z,0.90
2023-04-15T01:14:43.849Z,0.50
2023-04-15T01:17:10.440Z,0.77
2023-04-15T01:19:37.470Z,0.88
2023-04-15T01:22:05.528Z,0.77
2023-04-15T01:24:34.022Z,0.80
2023-04-15T01:27:00.660Z,0.70
2023-04-15T01:29:27.915Z,0.70
2023-04-15T01:31:56.253Z,0.57
2023-04-15T01:34:23.171Z,0.82
2023-04-15T01:36:49.857Z,0.93
2023-04-15T01:39:16.587Z,0.50
2023-04-15T01:41:43.259Z,1.00
2023-04-15T01:44:10.047Z,0.57
2023-04-15T01:46:36.924Z,0.82
2023-04-15T01:49:03.638Z,0.90
2023-04-15T01:51:30.213Z,0.80
2023-04-15T01:53:56.989Z,0.70
2023-04-15T01:56:26.778Z,0.70
2023-04-15T01:58:53.636Z,0.80
2023-04-15T02:01:20.581Z,0.80
2023-04-15T02:03:47.934Z,0.90
2023-04-15T02:06:15.069Z,0.70
2023-04-15T02:08:41.805Z,0.88
2023-04-15T02:11:08.486Z,0.70
2023-04-15T02:13:35.295Z,0.68
2023-04-15T02:16:02.111Z,0.70
2023-04-15T02:18:28.842Z,0.52
2023-04-15T02:20:57.235Z,0.80
2023-04-15T02:23:24.499Z,0.60
2023-04-15T02:25:53.465Z,0.80
2023-04-15T02:28:21.475Z,0.80
2023-04-15T02:30:52.680Z,0.90
2023-04-15T02:33:19.987Z,0.70
2023-04-15T02:35:47.221Z,0.73
2023-04-15T02:38:14.813Z,0.70
2023-04-15T02:40:41.560Z,0.70
2023-04-15T02:43:08.202Z,0.50
2023-04-15T02:45:35.085Z,0.50
2023-04-15T02:48:06.085Z,0.75
2023-04-15T02:50:33.183Z,0.60
2023-04-15T02:53:01.594Z,0.75
2023-04-15T02:55:28.901Z,0.80
2023-04-15T02:57:55.620Z,0.70
2023-04-15T03:00:22.506Z,0.68
2023-04-15T03:02:52.378Z,0.60
2023-04-15T03:05:19.161Z,0.60
2023-04-15T03:07:45.803Z,0.60
2023-04-15T03:10:12.755Z,0.60
2023-04-15T03:12:39.510Z,0.70
2023-04-15T03:15:06.888Z,0.70
2023-04-15T03:17:33.848Z,0.50
2023-04-15T03:20:03.957Z,0.52
2023-04-15T03:22:31.645Z,0.65
2023-04-15T03:24:58.442Z,0.60
2023-04-15T03:27:26.190Z,0.50
2023-04-15T03:29:52.815Z,0.60
2023-04-15T03:32:19.488Z,0.73
2023-04-15T03:34:46.186Z,0.50
2023-04-15T03:37:12.808Z,0.68
2023-04-15T03:39:39.398Z,0.60
2023-04-15T03:42:05.998Z,0.70
2023-04-15T03:44:32.870Z,0.60
2023-04-15T03:46:59.513Z,0.50
2023-04-15T03:49:26.136Z,0.60
2023-04-15T03:51:52.792Z,0.50
2023-04-15T03:54:19.355Z,0.50
2023-04-15T03:56:45.960Z,0.70
2023-04-15T03:59:12.521Z,0.73
2023-04-15T04:01:39.120Z,0.60
2023-04-15T04:04:05.819Z,0.50
2023-04-15T04:06:32.610Z,0.70
2023-04-15T04:08:59.505Z,0.50
2023-04-15T04:11:26.379Z,0.47
2023-04-15T04:13:52.953Z,0.70
2023-04-15T04:16:20.040Z,0.90
2023-04-15T04:18:46.781Z,0.80
2023-04-15T04:21:13.571Z,0.63
2023-04-15T04:23:40.203Z,0.68
2023-04-15T04:26:07.126Z,0.73
2023-04-15T04:28:35.094Z,0.57
2023-04-15T04:31:01.728Z,0.90
2023-04-15T04:33:28.418Z,0.55
2023-04-15T04:35:55.054Z,0.70
2023-04-15T04:38:21.694Z,0.50
2023-04-15T04:40:48.711Z,0.80
2023-04-15T04:43:16.053Z,0.80
2023-04-15T04:45:42.915Z,0.73
2023-04-15T04:48:12.820Z,0.90
2023-04-15T04:50:39.858Z,0.68
2023-04-15T04:53:06.507Z,1.02
2023-04-15T04:55:33.132Z,0.90
2023-04-15T04:57:59.702Z,1.10
2023-04-15T05:00:26.272Z,1.70
2023-04-15T05:02:53.078Z,1.20
2023-04-15T05:05:19.773Z,1.05
2023-04-15T05:07:47.243Z,1.17
2023-04-15T05:10:15.289Z,1.10
2023-04-15T05:12:42.147Z,1.42
2023-04-15T05:15:09.226Z,0.90
2023-04-15T05:17:35.967Z,1.30
2023-04-15T05:20:03.711Z,1.23
2023-04-15T05:22:30.430Z,1.20
2023-04-15T05:24:57.002Z,1.40
2023-04-15T05:27:24.029Z,1.20
2023-04-15T05:29:50.945Z,1.15
2023-04-15T05:32:17.587Z,1.60
2023-04-15T05:34:44.196Z,1.35
2023-04-15T05:37:10.832Z,1.20
2023-04-15T05:39:37.474Z,1.20
2023-04-15T05:42:05.790Z,1.10
2023-04-15T05:44:32.565Z,1.17
2023-04-15T05:46:59.257Z,1.40
2023-04-15T05:49:26.147Z,1.17
2023-04-15T05:51:52.845Z,1.20
2023-04-15T05:54:20.387Z,1.25
2023-04-15T05:56:47.169Z,1.05
2023-04-15T05:59:13.755Z,1.40
2023-04-15T06:01:40.442Z,1.00
2023-04-15T06:04:07.391Z,1.10
2023-04-15T06:06:34.670Z,0.98
2023-04-15T06:09:01.457Z,1.10
2023-04-15T06:11:28.271Z,1.30
2023-04-15T06:13:54.906Z,1.10
2023-04-15T06:16:21.846Z,1.15
2023-04-15T06:18:48.732Z,1.25
2023-04-15T06:21:15.926Z,1.33
2023-04-15T06:23:42.852Z,1.50
2023-04-15T06:26:09.445Z,1.33
2023-04-15T06:28:36.092Z,1.25
2023-04-15T06:31:03.081Z,1.25
2023-04-15T06:33:29.874Z,1.83
2023-04-15T06:35:56.501Z,1.40
2023-04-15T06:38:23.181Z,1.60
2023-04-15T06:40:49.910Z,1.45
2023-04-15T06:43:16.487Z,1.40
2023-04-15T06:45:43.106Z,1.30
2023-04-15T06:48:09.780Z,1.40
2023-04-15T06:50:36.450Z,1.40
2023-04-15T06:53:03.137Z,1.17
2023-04-15T06:55:29.889Z,1.30
2023-04-15T06:57:56.526Z,1.35
2023-04-15T07:00:23.262Z,1.20
2023-04-15T07:02:49.978Z,1.50
2023-04-15T07:05:16.880Z,1.20
2023-04-15T07:07:43.558Z,1.40
2023-04-15T07:10:11.864Z,1.50
2023-04-15T07:12:38.693Z,1.45
2023-04-15T07:15:06.628Z,1.00
2023-04-15T07:17:33.309Z,1.38
2023-04-15T07:20:00.064Z,1.40
2023-04-15T07:22:26.676Z,1.20
2023-04-15T07:24:53.319Z,1.30
2023-04-15T07:27:20.044Z,1.13
2023-04-15T07:29:46.681Z,1.13
2023-04-15T07:32:13.313Z,1.33
2023-04-15T07:34:40.067Z,1.13
2023-04-15T07:37:06.701Z,1.20
2023-04-15T07:39:33.342Z,1.10
2023-04-15T07:42:00.104Z,1.30
2023-04-15T07:44:27.616Z,1.65
2023-04-15T07:46:54.206Z,1.27
2023-04-15T07:49:21.506Z,1.30
2023-04-15T07:51:49.249Z,1.20
2023-04-15T07:54:16.297Z,1.25
2023-04-15T07:56:43.017Z,1.58
2023-04-15T07:59:10.016Z,1.15
2023-04-15T08:01:36.939Z,1.30
2023-04-15T08:04:03.999Z,1.13
2023-04-15T08:06:31.220Z,1.40
2023-04-15T08:08:58.046Z,1.20
2023-04-15T08:11:24.948Z,1.73
2023-04-15T08:13:52.371Z,1.35
2023-04-15T08:16:27.900Z,1.48
2023-04-15T08:18:56.617Z,1.50
2023-04-15T08:21:23.766Z,1.38
2023-04-15T08:23:52.055Z,1.48
2023-04-15T08:26:20.216Z,1.30
2023-04-15T08:28:47.043Z,1.38
2023-04-15T08:31:15.550Z,1.40
2023-04-15T08:33:42.563Z,1.20
2023-04-15T08:36:09.285Z,1.20
2023-04-15T08:38:36.369Z,1.25
2023-04-15T08:41:07.343Z,1.27
2023-04-15T08:43:37.670Z,1.40
2023-04-15T08:46:05.284Z,1.30
2023-04-15T08:48:34.921Z,1.60
2023-04-15T08:51:02.268Z,1.30
2023-04-15T08:53:30.699Z,1.00
2023-04-15T08:55:59.812Z,1.33
2023-04-15T08:58:26.500Z,1.38
2023-04-15T09:00:53.655Z,1.42
2023-04-15T09:03:21.841Z,1.40
2023-04-15T09:05:50.074Z,1.25
2023-04-15T09:08:18.043Z,1.08
2023-04-15T09:10:45.102Z,1.10
2023-04-15T09:13:12.109Z,1.20
2023-04-15T09:15:38.965Z,1.30
2023-04-15T09:18:06.323Z,1.38
2023-04-15T09:20:42.968Z,1.30
2023-04-15T09:23:14.169Z,1.42
2023-04-15T09:25:44.915Z,1.60
2023-04-15T09:28:12.157Z,1.20
2023-04-15T09:30:38.984Z,1.20
2023-04-15T09:33:08.451Z,1.10
2023-04-15T09:35:38.183Z,1.27
2023-04-15T09:38:10.197Z,1.20
2023-04-15T09:43:09.779Z,1.15
2023-04-15T09:45:37.184Z,1.10
2023-04-15T09:48:36.369Z,1.20
2023-04-15T09:51:03.178Z,1.10
2023-04-15T09:53:31.766Z,1.30
2023-04-15T09:56:03.378Z,1.33
2023-04-15T09:58:31.975Z,1.23
2023-04-15T10:01:01.602Z,1.10
2023-04-15T10:03:31.594Z,1.35
2023-04-15T10:06:00.695Z,1.38
2023-04-15T10:08:29.267Z,1.17
2023-04-15T10:10:56.187Z,1.38
2023-04-15T10:13:25.459Z,1.20
2023-04-15T10:15:56.572Z,1.15
2023-04-15T10:18:26.616Z,1.00
2023-04-15T10:20:54.124Z,1.35
2023-04-15T10:23:22.741Z,1.20
2023-04-15T10:25:51.685Z,0.90
2023-04-15T10:28:19.431Z,1.50
2023-04-15T10:30:47.903Z,1.05
2023-04-15T10:33:16.220Z,1.30
2023-04-15T10:35:43.409Z,1.10
2023-04-15T10:38:37.407Z,1.20
2023-04-15T10:41:21.464Z,1.30
2023-04-15T10:44:02.704Z,1.17
2023-04-15T10:46:41.257Z,1.20
2023-04-15T10:49:16.864Z,1.10
2023-04-15T10:51:45.849Z,1.30
2023-04-15T10:54:25.890Z,1.17
2023-04-15T10:57:02.502Z,1.08
2023-04-15T10:59:58.228Z,1.38
2023-04-15T11:02:43.570Z,1.15
2023-04-15T11:05:12.031Z,1.15
2023-04-15T11:07:41.944Z,1.20
2023-04-15T11:10:17.440Z,1.15
2023-04-15T11:12:45.425Z,1.30
2023-04-15T11:15:42.598Z,1.00
2023-04-15T11:18:19.306Z,1.00
2023-04-15T11:21:06.621Z,1.20
2023-04-15T11:23:38.291Z,1.20
2023-04-15T11:26:09.191Z,1.00
2023-04-15T11:28:38.275Z,1.27
2023-04-15T11:31:17.568Z,1.20
2023-04-15T11:33:47.337Z,1.13
2023-04-15T11:36:14.308Z,1.10
2023-04-15T11:38:44.827Z,1.20
2023-04-15T11:41:11.924Z,0.90
2023-04-15T11:43:38.701Z,1.33
2023-04-15T11:46:05.505Z,0.90
2023-04-15T11:48:34.847Z,0.90
2023-04-15T11:51:06.657Z,1.02
2023-04-15T11:53:47.169Z,0.98
2023-04-15T11:56:18.979Z,1.17
2023-04-15T11:58:46.553Z,1.15
2023-04-15T12:01:13.940Z,0.90
2023-04-15T12:03:43.940Z,1.05
2023-04-15T12:06:19.530Z,0.90
2023-04-15T12:09:03.066Z,1.10
2023-04-15T12:11:32.845Z,0.82
2023-04-15T12:14:07.309Z,1.20
2023-04-15T12:16:44.552Z,1.20
2023-04-15T12:19:23.428Z,0.90
2023-04-15T12:21:50.449Z,0.95
2023-04-15T12:24:22.381Z,1.15
2023-04-15T12:26:57.846Z,0.80
2023-04-15T12:29:28.203Z,1.10
2023-04-15T12:31:57.232Z,1.20
2023-04-15T12:34:32.112Z,1.20
2023-04-15T12:37:00.633Z,1.10
2023-04-15T12:39:30.764Z,0.80
2023-04-15T12:41:57.766Z,0.90
2023-04-15T12:44:24.688Z,0.80
2023-04-15T12:46:52.950Z,0.82
2023-04-15T12:49:21.383Z,0.85
2023-04-15T12:51:53.156Z,0.80
2023-04-15T12:54:20.129Z,0.70
2023-04-15T12:56:47.742Z,1.15
2023-04-15T12:59:15.023Z,0.70
2023-04-15T13:01:41.873Z,0.75
2023-04-15T13:04:09.304Z,0.90
2023-04-15T13:06:36.846Z,0.88
2023-04-15T13:09:05.278Z,0.85
2023-04-15T13:11:33.732Z,0.70
2023-04-15T13:14:02.169Z,1.08
2023-04-15T13:16:29.114Z,0.80
2023-04-15T13:18:55.878Z,0.82
2023-04-15T13:21:22.577Z,0.70
2023-04-15T13:23:52.666Z,0.93
2023-04-15T13:26:19.705Z,0.80
2023-04-15T13:28:46.388Z,1.00
2023-04-15T13:31:13.274Z,0.88
2023-04-15T13:33:40.128Z,0.90
2023-04-15T13:36:07.252Z,0.85
2023-04-15T13:38:33.925Z,1.10
2023-04-15T13:41:00.574Z,1.02
2023-04-15T13:43:27.510Z,0.93
2023-04-15T13:45:54.136Z,1.10
2023-04-15T13:48:20.798Z,0.90
2023-04-15T13:50:47.424Z,0.80
2023-04-15T13:53:14.081Z,1.02
2023-04-15T13:55:42.485Z,0.90
2023-04-15T13:58:09.654Z,1.10
2023-04-15T14:00:36.346Z,0.80
2023-04-15T14:03:03.204Z,0.95
2023-04-15T14:05:30.342Z,0.85
2023-04-15T14:07:56.983Z,0.60
2023-04-15T14:10:23.686Z,0.80
2023-04-15T14:12:50.619Z,1.00
2023-04-15T14:15:17.291Z,0.90
2023-04-15T14:17:43.968Z,0.88
2023-04-15T14:20:10.993Z,1.17
2023-04-15T14:22:37.747Z,1.00
2023-04-15T14:25:05.067Z,1.20
2023-04-15T14:27:31.763Z,1.15
2023-04-15T14:29:58.908Z,1.00
2023-04-15T14:32:26.741Z,0.80
2023-04-15T14:34:53.407Z,1.00
2023-04-15T14:37:20.089Z,0.90
2023-04-15T14:39:46.745Z,1.00
2023-04-15T14:42:13.366Z,0.90
2023-04-15T14:44:39.979Z,1.25
2023-04-15T14:47:06.958Z,1.00
2023-04-15T14:49:33.663Z,0.90
2023-04-15T14:52:00.325Z,1.00
2023-04-15T14:54:26.963Z,0.98
2023-04-15T14:56:53.549Z,0.80
2023-04-15T14:59:20.130Z,0.73
2023-04-15T15:01:47.017Z,1.23
2023-04-15T15:04:13.840Z,0.90
2023-04-15T15:06:41.517Z,1.02
2023-04-15T15:09:08.462Z,0.90
2023-04-15T15:11:35.208Z,1.38
2023-04-15T15:14:01.892Z,1.40
2023-04-15T15:16:29.261Z,1.50
2023-04-15T15:18:56.103Z,2.05
2023-04-15T15:21:23.013Z,2.55
2023-04-15T15:23:50.056Z,2.05
2023-04-15T15:26:16.984Z,2.53
2023-04-15T15:28:45.446Z,2.70
2023-04-15T15:31:12.096Z,2.80
2023-04-15T15:33:38.791Z,2.72
2023-04-15T15:36:05.912Z,2.63
2023-04-15T15:38:32.518Z,2.47
2023-04-15T15:40:59.286Z,2.50
2023-04-15T15:43:26.081Z,2.60
2023-04-15T15:45:55.377Z,2.47
2023-04-15T15:48:23.686Z,2.70
2023-04-15T15:50:51.632Z,2.70
2023-04-15T15:53:20.752Z,3.83
2023-04-15T15:55:52.633Z,2.55
2023-04-15T15:58:20.673Z,2.80
2023-04-15T16:00:47.631Z,2.15
2023-04-15T16:03:15.056Z,2.40
2023-04-15T16:05:41.906Z,2.42
2023-04-15T16:08:08.649Z,2.22
2023-04-15T16:10:35.409Z,2.10
2023-04-15T16:13:02.919Z,2.10
2023-04-15T16:15:29.741Z,2.15
2023-04-15T16:17:56.528Z,2.50
2023-04-15T16:20:23.522Z,2.33
2023-04-15T16:22:50.290Z,2.22
2023-04-15T16:25:17.564Z,1.60
2023-04-15T16:27:57.648Z,2.15
2023-04-15T16:30:28.871Z,2.13
2023-04-15T16:32:56.465Z,1.73
2023-04-15T16:35:23.155Z,1.92
2023-04-15T16:37:49.744Z,1.85
2023-04-15T16:40:16.389Z,1.83
2023-04-15T16:42:43.658Z,2.20
2023-04-15T16:45:10.757Z,1.50
2023-04-15T16:47:37.416Z,1.83
2023-04-15T16:50:04.329Z,1.90
2023-04-15T16:52:30.975Z,2.05
2023-04-15T16:54:57.626Z,1.90
2023-04-15T16:57:24.688Z,1.08
2023-04-15T16:59:58.351Z,1.45
2023-04-15T17:02:25.079Z,1.80
2023-04-15T17:04:52.084Z,1.60
2023-04-15T17:07:18.694Z,1.42
2023-04-15T17:09:45.371Z,1.38
2023-04-15T17:12:12.016Z,1.45
2023-04-15T17:14:38.908Z,1.48
2023-04-15T17:17:06.515Z,1.30
2023-04-15T17:19:33.571Z,1.20
2023-04-15T17:22:01.058Z,1.40
2023-04-15T17:24:27.746Z,1.40
2023-04-15T17:26:54.446Z,1.48
2023-04-15T17:29:21.129Z,1.33
2023-04-15T17:31:47.799Z,1.10
2023-04-15T17:34:15.935Z,1.20
2023-04-15T17:36:42.842Z,1.20
2023-04-15T17:39:09.600Z,1.60
2023-04-15T17:41:36.225Z,1.38
2023-04-15T17:46:29.811Z,1.60
2023-04-15T17:48:56.474Z,0.85
2023-04-15T17:51:23.102Z,0.93
2023-04-15T17:53:49.821Z,1.20
2023-04-15T17:56:16.465Z,1.00
2023-04-15T17:58:43.527Z,1.08
2023-04-15T18:01:10.358Z,0.80
2023-04-15T18:03:37.122Z,1.00
2023-04-15T18:06:03.988Z,0.80
2023-04-15T18:08:31.542Z,1.10
2023-04-15T18:10:58.198Z,0.90
2023-04-15T18:13:24.871Z,0.93
2023-04-15T18:15:51.703Z,1.13
2023-04-15T18:18:18.428Z,1.45
2023-04-15T18:20:45.315Z,1.20
2023-04-15T18:23:11.970Z,1.25
2023-04-15T18:25:38.661Z,0.98
2023-04-15T18:28:05.763Z,0.88
2023-04-15T18:30:32.403Z,0.90
2023-04-15T18:32:59.190Z,0.75
2023-04-15T18:35:25.892Z,1.05
2023-04-15T18:37:52.993Z,0.80
2023-04-15T18:40:19.818Z,1.00
2023-04-15T18:42:46.608Z,0.80
2023-04-15T18:45:13.348Z,1.02
2023-04-15T18:47:40.164Z,0.95
2023-04-15T18:50:08.094Z,1.00
2023-04-15T18:52:34.905Z,1.00
2023-04-15T18:55:03.245Z,1.10
2023-04-15T18:57:35.239Z,0.90
2023-04-15T19:00:04.978Z,1.02
2023-04-15T19:02:31.698Z,0.80
2023-04-15T19:04:58.405Z,1.00
2023-04-15T19:07:25.119Z,1.17
2023-04-15T19:09:52.693Z,1.20
2023-04-15T19:12:19.368Z,1.00
2023-04-15T19:14:46.048Z,0.80
2023-04-15T19:17:12.683Z,0.80
2023-04-15T19:19:39.323Z,1.00
2023-04-15T19:22:06.568Z,0.77
2023-04-15T19:24:33.352Z,0.98
2023-04-15T19:27:00.152Z,1.05
2023-04-15T19:29:28.543Z,0.77
2023-04-15T19:31:55.941Z,0.80
2023-04-15T19:34:22.921Z,1.05
2023-04-15T19:36:49.593Z,0.82
2023-04-15T19:39:16.555Z,1.00
2023-04-15T19:41:44.178Z,1.20
2023-04-15T19:44:12.958Z,1.25
2023-04-15T19:46:40.810Z,0.90
2023-04-15T19:49:07.733Z,1.40
2023-04-15T19:51:34.486Z,1.00
2023-04-15T19:54:01.183Z,0.85
2023-04-15T19:56:27.974Z,0.95
2023-04-15T19:58:55.033Z,0.82
2023-04-15T20:01:22.658Z,0.93
2023-04-15T20:03:49.692Z,0.90
2023-04-15T20:06:16.482Z,1.20
2023-04-15T20:08:43.258Z,1.10
2023-04-15T20:11:10.646Z,0.93
2023-04-15T20:13:37.382Z,1.13
2023-04-15T20:16:05.974Z,1.25
2023-04-15T20:18:32.818Z,1.13
2023-04-15T20:20:59.586Z,1.02
2023-04-15T20:23:26.372Z,1.33
2023-04-15T20:25:53.078Z,0.88
2023-04-15T20:28:19.814Z,1.58
2023-04-15T20:30:47.178Z,1.33
2023-04-15T20:33:14.343Z,1.13
2023-04-15T20:35:41.123Z,1.38
2023-04-15T20:38:08.377Z,1.10
2023-04-15T20:40:34.975Z,0.93
2023-04-15T20:43:01.612Z,0.98
2023-04-15T20:45:28.258Z,1.17
2023-04-15T20:47:56.025Z,0.90
2023-04-15T20:50:22.768Z,1.33
2023-04-15T20:52:49.450Z,1.00
2023-04-15T20:55:16.183Z,0.80
2023-04-15T20:57:42.931Z,1.27
2023-04-15T21:00:10.845Z,1.00
2023-04-15T21:02:38.043Z,0.80
2023-04-15T21:05:05.424Z,1.02
2023-04-15T21:07:32.017Z,1.08
2023-04-15T21:09:58.593Z,0.90
2023-04-15T21:12:25.426Z,1.35
2023-04-15T21:14:52.358Z,1.08
2023-04-15T21:17:19.195Z,1.00
2023-04-15T21:19:45.898Z,0.73
2023-04-15T21:22:13.585Z,1.20
2023-04-15T21:24:40.209Z,0.90
2023-04-15T21:27:06.837Z,0.93
2023-04-15T21:29:33.520Z,1.00
2023-04-15T21:32:00.272Z,0.73
2023-04-15T21:34:26.916Z,1.00
2023-04-15T21:36:53.525Z,0.80
2023-04-15T21:39:20.774Z,0.98
2023-04-15T21:41:47.428Z,0.95
2023-04-15T21:44:15.145Z,0.95
2023-04-15T21:46:42.273Z,1.13
2023-04-15T21:49:13.898Z,0.80
2023-04-15T21:51:40.552Z,0.82
2023-04-15T21:54:07.250Z,0.77
2023-04-15T21:56:33.956Z,0.80
2023-04-15T21:59:00.597Z,1.10
2023-04-15T22:01:27.417Z,0.90
2023-04-15T22:03:54.323Z,1.02
2023-04-15T22:06:21.416Z,0.80
2023-04-15T22:08:57.062Z,0.93
2023-04-15T22:11:28.376Z,0.95
2023-04-15T22:13:58.742Z,1.00
2023-04-15T22:16:26.254Z,0.80
2023-04-15T22:18:53.481Z,0.90
2023-04-15T22:21:20.157Z,1.00
2023-04-15T22:23:47.653Z,0.80
2023-04-15T22:26:14.374Z,0.80
2023-04-15T22:28:41.056Z,0.70
2023-04-15T22:31:07.757Z,1.00
2023-04-15T22:33:34.444Z,0.63
2023-04-15T22:36:01.125Z,0.73
2023-04-15T22:38:27.804Z,0.73
2023-04-15T22:40:54.482Z,0.68
2023-04-15T22:43:22.225Z,0.75
2023-04-15T22:45:52.897Z,0.95
2023-04-15T22:48:19.644Z,0.70
2023-04-15T22:50:46.526Z,0.80
2023-04-15T22:53:14.779Z,0.75
2023-04-15T22:55:45.673Z,0.60
2023-04-15T22:58:12.495Z,0.88
2023-04-15T23:00:39.247Z,0.80
2023-04-15T23:03:06.194Z,0.85
2023-04-15T23:05:34.102Z,0.80
2023-04-15T23:08:00.963Z,0.82
2023-04-15T23:10:27.832Z,0.80
2023-04-15T23:12:54.468Z,0.68
2023-04-15T23:15:21.326Z,0.65
2023-04-15T23:17:47.997Z,0.90
2023-04-15T23:20:16.216Z,0.82
2023-04-15T23:22:43.230Z,0.60
2023-04-15T23:25:10.154Z,1.00
2023-04-15T23:27:36.912Z,0.90
2023-04-15T23:30:04.023Z,0.60
2023-04-15T23:32:30.891Z,0.60
2023-04-15T23:34:57.590Z,0.65
2023-04-15T23:37:24.266Z,0.70
2023-04-15T23:39:50.924Z,0.70
2023-04-15T23:42:17.551Z,0.77
2023-04-15T23:44:44.836Z,0.80
2023-04-15T23:47:11.499Z,0.75
2023-04-15T23:49:40.683Z,0.80
2023-04-15T23:52:07.670Z,0.75
2023-04-15T23:54:34.323Z,0.95
2023-04-15T23:57:00.927Z,0.70
2023-04-15T23:59:27.574Z,0.70
